sensor_id;sensor_type;location;lat;lon;timestamp;P1;durP1;ratioP1;P2;durP2;ratioP2
5416;SDS011;2731;50.754;12.990;2023-05-21T00:00:31;19.88;;;15.75;;
5416;SDS011;2731;50.754;12.990;2023-05-21T00:02:58;23.25;;;16.80;;
5416;SDS011;2731;50.754;12.990;2023-05-21T00:05:25;19.98;;;15.77;;
5416;SDS011;2731;50.754;12.990;2023-05-21T00:07:52;22.25;;;16.05;;
5416;SDS011;2731;50.754;12.990;2023-05-21T00:10:19;20.17;;;16.50;;
5416;SDS011;2731;50.754;12.990;2023-05-21T00:12:46;20.00;;;16.70;;
5416;SDS011;2731;50.754;12.990;2023-05-21T00:15:14;20.05;;;16.10;;
5416;SDS011;2731;50.754;12.990;2023-05-21T00:17:41;20.15;;;15.38;;
5416;SDS011;2731;50.754;12.990;2023-05-21T00:20:11;19.38;;;15.85;;
5416;SDS011;2731;50.754;12.990;2023-05-21T00:22:38;24.98;;;16.40;;
5416;SDS011;2731;50.754;12.990;2023-05-21T00:25:06;19.98;;;15.80;;
5416;SDS011;2731;50.754;12.990;2023-05-21T00:27:33;19.30;;;15.40;;
5416;SDS011;2731;50.754;12.990;2023-05-21T00:30:02;22.60;;;15.85;;
5416;SDS011;2731;50.754;12.990;2023-05-21T00:32:30;20.75;;;15.75;;
5416;SDS011;2731;50.754;12.990;2023-05-21T00:34:57;22.70;;;16.55;;
5416;SDS011;2731;50.754;12.990;2023-05-21T00:37:25;21.65;;;17.08;;
5416;SDS011;2731;50.754;12.990;2023-05-21T00:39:58;21.45;;;16.42;;
5416;SDS011;2731;50.754;12.990;2023-05-21T00:42:24;20.58;;;16.05;;
5416;SDS011;2731;50.754;12.990;2023-05-21T00:44:52;21.77;;;16.42;;
5416;SDS011;2731;50.754;12.990;2023-05-21T00:47:20;22.27;;;17.10;;
5416;SDS011;2731;50.754;12.990;2023-05-21T00:49:47;25.30;;;19.17;;
5416;SDS011;2731;50.754;12.990;2023-05-21T00:52:26;20.90;;;14.90;;
5416;SDS011;2731;50.754;12.990;2023-05-21T00:54:55;22.98;;;16.08;;
5416;SDS011;2731;50.754;12.990;2023-05-21T00:57:22;21.45;;;17.20;;
5416;SDS011;2731;50.754;12.990;2023-05-21T00:59:51;22.35;;;17.02;;
5416;SDS011;2731;50.754;12.990;2023-05-21T01:02:20;23.10;;;16.75;;
5416;SDS011;2731;50.754;12.990;2023-05-21T01:04:49;21.30;;;17.02;;
5416;SDS011;2731;50.754;12.990;2023-05-21T01:07:17;20.48;;;16.83;;
5416;SDS011;2731;50.754;12.990;2023-05-21T01:09:45;21.08;;;15.65;;
5416;SDS011;2731;50.754;12.990;2023-05-21T01:12:13;20.27;;;16.52;;
5416;SDS011;2731;50.754;12.990;2023-05-21T01:14:40;21.17;;;17.02;;
5416;SDS011;2731;50.754;12.990;2023-05-21T01:17:07;22.65;;;17.70;;
5416;SDS011;2731;50.754;12.990;2023-05-21T01:19:37;22.83;;;18.13;;
5416;SDS011;2731;50.754;12.990;2023-05-21T01:22:05;23.65;;;18.52;;
5416;SDS011;2731;50.754;12.990;2023-05-21T01:24:33;18.48;;;15.38;;
5416;SDS011;2731;50.754;12.990;2023-05-21T01:27:02;24.33;;;17.58;;
5416;SDS011;2731;50.754;12.990;2023-05-21T01:29:32;25.07;;;17.67;;
5416;SDS011;2731;50.754;12.990;2023-05-21T01:34:33;21.45;;;16.48;;
5416;SDS011;2731;50.754;12.990;2023-05-21T01:37:21;22.52;;;16.92;;
5416;SDS011;2731;50.754;12.990;2023-05-21T01:39:51;23.95;;;16.83;;
5416;SDS011;2731;50.754;12.990;2023-05-21T01:42:19;23.67;;;17.33;;
5416;SDS011;2731;50.754;12.990;2023-05-21T01:44:50;22.45;;;17.50;;
5416;SDS011;2731;50.754;12.990;2023-05-21T01:47:18;23.38;;;18.20;;
5416;SDS011;2731;50.754;12.990;2023-05-21T01:52:17;20.80;;;16.65;;
5416;SDS011;2731;50.754;12.990;2023-05-21T01:54:44;23.10;;;17.70;;
5416;SDS011;2731;50.754;12.990;2023-05-21T01:57:14;22.27;;;17.85;;
5416;SDS011;2731;50.754;12.990;2023-05-21T01:59:43;21.05;;;16.25;;
5416;SDS011;2731;50.754;12.990;2023-05-21T02:02:13;22.75;;;16.73;;
5416;SDS011;2731;50.754;12.990;2023-05-21T02:04:42;24.77;;;17.83;;
5416;SDS011;2731;50.754;12.990;2023-05-21T02:07:19;22.17;;;16.98;;
5416;SDS011;2731;50.754;12.990;2023-05-21T02:09:48;23.08;;;16.05;;
5416;SDS011;2731;50.754;12.990;2023-05-21T02:12:17;21.63;;;16.10;;
5416;SDS011;2731;50.754;12.990;2023-05-21T02:14:44;21.83;;;16.15;;
5416;SDS011;2731;50.754;12.990;2023-05-21T02:17:14;21.33;;;16.35;;
5416;SDS011;2731;50.754;12.990;2023-05-21T02:19:43;21.20;;;16.42;;
5416;SDS011;2731;50.754;12.990;2023-05-21T02:22:11;18.98;;;15.07;;
5416;SDS011;2731;50.754;12.990;2023-05-21T02:24:38;22.75;;;16.45;;
5416;SDS011;2731;50.754;12.990;2023-05-21T02:27:06;22.33;;;16.77;;
5416;SDS011;2731;50.754;12.990;2023-05-21T02:29:35;19.40;;;15.82;;
5416;SDS011;2731;50.754;12.990;2023-05-21T02:32:03;20.08;;;15.38;;
5416;SDS011;2731;50.754;12.990;2023-05-21T02:34:30;19.70;;;16.60;;
5416;SDS011;2731;50.754;12.990;2023-05-21T02:37:00;22.73;;;15.60;;
5416;SDS011;2731;50.754;12.990;2023-05-21T02:39:28;19.55;;;14.95;;
5416;SDS011;2731;50.754;12.990;2023-05-21T02:41:56;21.02;;;16.55;;
5416;SDS011;2731;50.754;12.990;2023-05-21T02:44:22;21.88;;;15.30;;
5416;SDS011;2731;50.754;12.990;2023-05-21T02:46:49;21.92;;;15.93;;
5416;SDS011;2731;50.754;12.990;2023-05-21T02:49:17;19.60;;;15.07;;
5416;SDS011;2731;50.754;12.990;2023-05-21T02:51:46;20.58;;;15.95;;
5416;SDS011;2731;50.754;12.990;2023-05-21T02:54:14;21.60;;;17.10;;
5416;SDS011;2731;50.754;12.990;2023-05-21T02:56:40;20.95;;;15.98;;
5416;SDS011;2731;50.754;12.990;2023-05-21T02:59:07;18.70;;;14.50;;
5416;SDS011;2731;50.754;12.990;2023-05-21T03:01:34;18.52;;;15.10;;
5416;SDS011;2731;50.754;12.990;2023-05-21T03:04:03;21.15;;;15.30;;
5416;SDS011;2731;50.754;12.990;2023-05-21T03:06:29;17.60;;;15.20;;
5416;SDS011;2731;50.754;12.990;2023-05-21T03:08:57;19.58;;;15.48;;
5416;SDS011;2731;50.754;12.990;2023-05-21T03:11:26;20.23;;;15.82;;
5416;SDS011;2731;50.754;12.990;2023-05-21T03:13:54;21.17;;;15.88;;
5416;SDS011;2731;50.754;12.990;2023-05-21T03:16:22;20.15;;;15.45;;
5416;SDS011;2731;50.754;12.990;2023-05-21T03:18:52;17.65;;;14.88;;
5416;SDS011;2731;50.754;12.990;2023-05-21T03:21:20;19.10;;;15.70;;
5416;SDS011;2731;50.754;12.990;2023-05-21T03:23:50;20.17;;;16.00;;
5416;SDS011;2731;50.754;12.990;2023-05-21T03:26:18;18.60;;;15.68;;
5416;SDS011;2731;50.754;12.990;2023-05-21T03:28:49;19.23;;;14.73;;
5416;SDS011;2731;50.754;12.990;2023-05-21T03:31:15;19.50;;;15.13;;
5416;SDS011;2731;50.754;12.990;2023-05-21T03:33:41;23.92;;;18.40;;
5416;SDS011;2731;50.754;12.990;2023-05-21T03:36:07;19.65;;;15.07;;
5416;SDS011;2731;50.754;12.990;2023-05-21T03:38:36;20.23;;;15.07;;
5416;SDS011;2731;50.754;12.990;2023-05-21T03:41:04;19.95;;;16.30;;
5416;SDS011;2731;50.754;12.990;2023-05-21T03:43:30;21.80;;;16.15;;
5416;SDS011;2731;50.754;12.990;2023-05-21T03:45:58;20.80;;;15.82;;
5416;SDS011;2731;50.754;12.990;2023-05-21T03:48:25;23.92;;;16.85;;
5416;SDS011;2731;50.754;12.990;2023-05-21T03:50:54;18.80;;;14.68;;
5416;SDS011;2731;50.754;12.990;2023-05-21T03:53:21;22.40;;;15.55;;
5416;SDS011;2731;50.754;12.990;2023-05-21T03:55:48;19.98;;;15.75;;
5416;SDS011;2731;50.754;12.990;2023-05-21T03:58:22;24.27;;;17.25;;
5416;SDS011;2731;50.754;12.990;2023-05-21T04:00:48;21.55;;;16.10;;
5416;SDS011;2731;50.754;12.990;2023-05-21T04:03:16;18.05;;;14.68;;
5416;SDS011;2731;50.754;12.990;2023-05-21T04:05:43;19.67;;;14.93;;
5416;SDS011;2731;50.754;12.990;2023-05-21T04:08:10;21.42;;;16.85;;
5416;SDS011;2731;50.754;12.990;2023-05-21T04:10:37;18.60;;;15.10;;
5416;SDS011;2731;50.754;12.990;2023-05-21T04:13:04;20.08;;;15.43;;
5416;SDS011;2731;50.754;12.990;2023-05-21T04:15:33;20.45;;;15.63;;
5416;SDS011;2731;50.754;12.990;2023-05-21T04:18:03;20.75;;;16.63;;
5416;SDS011;2731;50.754;12.990;2023-05-21T04:20:33;19.42;;;15.18;;
5416;SDS011;2731;50.754;12.990;2023-05-21T04:23:00;20.70;;;15.80;;
5416;SDS011;2731;50.754;12.990;2023-05-21T04:25:29;17.33;;;14.05;;
5416;SDS011;2731;50.754;12.990;2023-05-21T04:27:57;18.25;;;14.52;;
5416;SDS011;2731;50.754;12.990;2023-05-21T04:30:26;16.75;;;13.25;;
5416;SDS011;2731;50.754;12.990;2023-05-21T04:32:53;19.17;;;14.77;;
5416;SDS011;2731;50.754;12.990;2023-05-21T04:35:19;18.02;;;14.48;;
5416;SDS011;2731;50.754;12.990;2023-05-21T04:37:51;18.25;;;14.95;;
5416;SDS011;2731;50.754;12.990;2023-05-21T04:40:19;18.35;;;15.60;;
5416;SDS011;2731;50.754;12.990;2023-05-21T04:42:51;19.67;;;15.13;;
5416;SDS011;2731;50.754;12.990;2023-05-21T04:45:20;17.42;;;13.75;;
5416;SDS011;2731;50.754;12.990;2023-05-21T04:47:49;20.30;;;14.55;;
5416;SDS011;2731;50.754;12.990;2023-05-21T04:50:17;15.80;;;13.57;;
5416;SDS011;2731;50.754;12.990;2023-05-21T04:52:48;18.92;;;14.13;;
5416;SDS011;2731;50.754;12.990;2023-05-21T04:55:16;17.77;;;14.27;;
5416;SDS011;2731;50.754;12.990;2023-05-21T04:57:44;18.05;;;14.60;;
5416;SDS011;2731;50.754;12.990;2023-05-21T05:00:11;17.65;;;12.98;;
5416;SDS011;2731;50.754;12.990;2023-05-21T05:02:42;17.30;;;14.10;;
5416;SDS011;2731;50.754;12.990;2023-05-21T05:05:10;16.10;;;13.40;;
5416;SDS011;2731;50.754;12.990;2023-05-21T05:07:38;19.25;;;14.93;;
5416;SDS011;2731;50.754;12.990;2023-05-21T05:10:07;18.02;;;13.38;;
5416;SDS011;2731;50.754;12.990;2023-05-21T05:12:36;17.48;;;14.35;;
5416;SDS011;2731;50.754;12.990;2023-05-21T05:15:02;17.38;;;14.07;;
5416;SDS011;2731;50.754;12.990;2023-05-21T05:17:31;18.15;;;14.43;;
5416;SDS011;2731;50.754;12.990;2023-05-21T05:19:59;17.80;;;14.23;;
5416;SDS011;2731;50.754;12.990;2023-05-21T05:22:26;20.30;;;15.45;;
5416;SDS011;2731;50.754;12.990;2023-05-21T05:24:52;19.42;;;15.50;;
5416;SDS011;2731;50.754;12.990;2023-05-21T05:27:18;17.67;;;14.85;;
5416;SDS011;2731;50.754;12.990;2023-05-21T05:29:45;16.73;;;14.70;;
5416;SDS011;2731;50.754;12.990;2023-05-21T05:32:12;19.38;;;15.15;;
5416;SDS011;2731;50.754;12.990;2023-05-21T05:34:39;17.83;;;14.35;;
5416;SDS011;2731;50.754;12.990;2023-05-21T05:37:07;15.00;;;13.45;;
5416;SDS011;2731;50.754;12.990;2023-05-21T05:39:33;18.63;;;14.55;;
5416;SDS011;2731;50.754;12.990;2023-05-21T05:42:02;19.10;;;14.57;;
5416;SDS011;2731;50.754;12.990;2023-05-21T05:44:29;16.05;;;14.32;;
5416;SDS011;2731;50.754;12.990;2023-05-21T05:46:57;16.77;;;14.07;;
5416;SDS011;2731;50.754;12.990;2023-05-21T05:49:23;16.73;;;13.88;;
5416;SDS011;2731;50.754;12.990;2023-05-21T05:51:51;16.63;;;14.23;;
5416;SDS011;2731;50.754;12.990;2023-05-21T05:54:17;18.92;;;15.50;;
5416;SDS011;2731;50.754;12.990;2023-05-21T05:56:45;17.92;;;14.40;;
5416;SDS011;2731;50.754;12.990;2023-05-21T05:59:14;23.58;;;16.65;;
5416;SDS011;2731;50.754;12.990;2023-05-21T06:01:41;18.90;;;16.00;;
5416;SDS011;2731;50.754;12.990;2023-05-21T06:04:09;20.98;;;16.67;;
5416;SDS011;2731;50.754;12.990;2023-05-21T06:06:37;22.77;;;16.30;;
5416;SDS011;2731;50.754;12.990;2023-05-21T06:09:04;20.77;;;15.73;;
5416;SDS011;2731;50.754;12.990;2023-05-21T06:11:33;20.00;;;15.73;;
5416;SDS011;2731;50.754;12.990;2023-05-21T06:14:00;19.00;;;14.45;;
5416;SDS011;2731;50.754;12.990;2023-05-21T06:16:28;19.15;;;15.18;;
5416;SDS011;2731;50.754;12.990;2023-05-21T06:19:02;17.70;;;15.27;;
5416;SDS011;2731;50.754;12.990;2023-05-21T06:21:30;18.83;;;15.60;;
5416;SDS011;2731;50.754;12.990;2023-05-21T06:23:59;19.20;;;16.05;;
5416;SDS011;2731;50.754;12.990;2023-05-21T06:26:26;18.65;;;14.75;;
5416;SDS011;2731;50.754;12.990;2023-05-21T06:28:55;19.10;;;15.48;;
5416;SDS011;2731;50.754;12.990;2023-05-21T06:31:21;17.98;;;14.65;;
5416;SDS011;2731;50.754;12.990;2023-05-21T06:33:50;17.30;;;14.70;;
5416;SDS011;2731;50.754;12.990;2023-05-21T06:36:17;18.83;;;14.73;;
5416;SDS011;2731;50.754;12.990;2023-05-21T06:38:43;16.73;;;14.15;;
5416;SDS011;2731;50.754;12.990;2023-05-21T06:41:11;20.77;;;14.77;;
5416;SDS011;2731;50.754;12.990;2023-05-21T06:43:40;17.48;;;13.35;;
5416;SDS011;2731;50.754;12.990;2023-05-21T06:46:07;19.55;;;14.07;;
5416;SDS011;2731;50.754;12.990;2023-05-21T06:48:35;17.20;;;14.63;;
5416;SDS011;2731;50.754;12.990;2023-05-21T06:51:03;17.35;;;13.88;;
5416;SDS011;2731;50.754;12.990;2023-05-21T06:53:30;16.88;;;13.65;;
5416;SDS011;2731;50.754;12.990;2023-05-21T06:55:57;16.42;;;13.43;;
5416;SDS011;2731;50.754;12.990;2023-05-21T06:58:23;20.23;;;12.88;;
5416;SDS011;2731;50.754;12.990;2023-05-21T07:00:52;17.63;;;14.20;;
5416;SDS011;2731;50.754;12.990;2023-05-21T07:03:19;16.38;;;13.57;;
5416;SDS011;2731;50.754;12.990;2023-05-21T07:05:48;18.10;;;14.57;;
5416;SDS011;2731;50.754;12.990;2023-05-21T07:08:16;14.48;;;12.30;;
5416;SDS011;2731;50.754;12.990;2023-05-21T07:10:45;17.70;;;13.68;;
5416;SDS011;2731;50.754;12.990;2023-05-21T07:13:14;17.35;;;13.55;;
5416;SDS011;2731;50.754;12.990;2023-05-21T07:15:40;12.82;;;11.43;;
5416;SDS011;2731;50.754;12.990;2023-05-21T07:18:08;14.35;;;12.18;;
5416;SDS011;2731;50.754;12.990;2023-05-21T07:20:36;14.95;;;12.65;;
5416;SDS011;2731;50.754;12.990;2023-05-21T07:23:04;15.60;;;12.38;;
5416;SDS011;2731;50.754;12.990;2023-05-21T07:25:33;17.48;;;12.43;;
5416;SDS011;2731;50.754;12.990;2023-05-21T07:28:00;14.82;;;11.55;;
5416;SDS011;2731;50.754;12.990;2023-05-21T07:30:26;17.08;;;12.77;;
5416;SDS011;2731;50.754;12.990;2023-05-21T07:32:54;13.18;;;11.20;;
5416;SDS011;2731;50.754;12.990;2023-05-21T07:35:22;13.55;;;10.90;;
5416;SDS011;2731;50.754;12.990;2023-05-21T07:37:50;15.05;;;12.15;;
5416;SDS011;2731;50.754;12.990;2023-05-21T07:40:17;16.65;;;11.98;;
5416;SDS011;2731;50.754;12.990;2023-05-21T07:42:46;16.00;;;11.10;;
5416;SDS011;2731;50.754;12.990;2023-05-21T07:45:12;15.70;;;10.95;;
5416;SDS011;2731;50.754;12.990;2023-05-21T07:47:40;12.55;;;10.90;;
5416;SDS011;2731;50.754;12.990;2023-05-21T07:50:06;11.90;;;10.48;;
5416;SDS011;2731;50.754;12.990;2023-05-21T07:52:33;12.45;;;11.13;;
5416;SDS011;2731;50.754;12.990;2023-05-21T07:55:01;12.93;;;11.20;;
5416;SDS011;2731;50.754;12.990;2023-05-21T07:57:38;13.07;;;9.80;;
5416;SDS011;2731;50.754;12.990;2023-05-21T08:00:04;12.40;;;10.30;;
5416;SDS011;2731;50.754;12.990;2023-05-21T08:02:38;15.00;;;11.23;;
5416;SDS011;2731;50.754;12.990;2023-05-21T08:05:05;13.50;;;11.02;;
5416;SDS011;2731;50.754;12.990;2023-05-21T08:07:34;12.40;;;10.75;;
5416;SDS011;2731;50.754;12.990;2023-05-21T08:10:03;14.95;;;11.70;;
5416;SDS011;2731;50.754;12.990;2023-05-21T08:12:29;12.90;;;11.18;;
5416;SDS011;2731;50.754;12.990;2023-05-21T08:14:56;13.20;;;10.80;;
5416;SDS011;2731;50.754;12.990;2023-05-21T08:17:25;16.15;;;11.07;;
5416;SDS011;2731;50.754;12.990;2023-05-21T08:19:53;12.05;;;9.95;;
5416;SDS011;2731;50.754;12.990;2023-05-21T08:22:25;13.45;;;10.35;;
5416;SDS011;2731;50.754;12.990;2023-05-21T08:24:52;11.23;;;9.93;;
5416;SDS011;2731;50.754;12.990;2023-05-21T08:27:20;11.23;;;9.65;;
5416;SDS011;2731;50.754;12.990;2023-05-21T08:29:47;13.65;;;10.38;;
5416;SDS011;2731;50.754;12.990;2023-05-21T08:32:15;13.70;;;10.13;;
5416;SDS011;2731;50.754;12.990;2023-05-21T08:34:43;13.35;;;9.85;;
5416;SDS011;2731;50.754;12.990;2023-05-21T08:37:11;14.13;;;10.85;;
5416;SDS011;2731;50.754;12.990;2023-05-21T08:39:39;11.52;;;9.73;;
5416;SDS011;2731;50.754;12.990;2023-05-21T08:42:08;10.98;;;9.60;;
5416;SDS011;2731;50.754;12.990;2023-05-21T08:44:37;10.57;;;9.15;;
5416;SDS011;2731;50.754;12.990;2023-05-21T08:47:11;11.30;;;9.90;;
5416;SDS011;2731;50.754;12.990;2023-05-21T08:49:42;11.52;;;9.38;;
5416;SDS011;2731;50.754;12.990;2023-05-21T08:52:10;14.50;;;9.80;;
5416;SDS011;2731;50.754;12.990;2023-05-21T08:54:38;13.02;;;9.68;;
5416;SDS011;2731;50.754;12.990;2023-05-21T08:57:04;11.45;;;9.80;;
5416;SDS011;2731;50.754;12.990;2023-05-21T08:59:31;13.90;;;9.68;;
5416;SDS011;2731;50.754;12.990;2023-05-21T09:01:58;11.38;;;9.35;;
5416;SDS011;2731;50.754;12.990;2023-05-21T09:04:24;13.05;;;10.40;;
5416;SDS011;2731;50.754;12.990;2023-05-21T09:06:53;11.90;;;9.32;;
5416;SDS011;2731;50.754;12.990;2023-05-21T09:09:31;11.20;;;9.80;;
5416;SDS011;2731;50.754;12.990;2023-05-21T09:12:00;10.63;;;9.38;;
5416;SDS011;2731;50.754;12.990;2023-05-21T09:14:28;10.95;;;8.95;;
5416;SDS011;2731;50.754;12.990;2023-05-21T09:16:56;10.15;;;9.15;;
5416;SDS011;2731;50.754;12.990;2023-05-21T09:19:22;8.65;;;7.75;;
5416;SDS011;2731;50.754;12.990;2023-05-21T09:21:56;11.57;;;8.70;;
5416;SDS011;2731;50.754;12.990;2023-05-21T09:24:31;9.68;;;8.68;;
5416;SDS011;2731;50.754;12.990;2023-05-21T09:27:00;18.10;;;9.65;;
5416;SDS011;2731;50.754;12.990;2023-05-21T09:29:29;9.20;;;8.23;;
5416;SDS011;2731;50.754;12.990;2023-05-21T09:31:57;10.77;;;8.55;;
5416;SDS011;2731;50.754;12.990;2023-05-21T09:34:25;11.50;;;9.23;;
5416;SDS011;2731;50.754;12.990;2023-05-21T09:36:55;12.52;;;8.60;;
5416;SDS011;2731;50.754;12.990;2023-05-21T09:39:29;11.10;;;9.07;;
5416;SDS011;2731;50.754;12.990;2023-05-21T09:42:01;12.82;;;8.38;;
5416;SDS011;2731;50.754;12.990;2023-05-21T09:44:29;12.88;;;8.32;;
5416;SDS011;2731;50.754;12.990;2023-05-21T09:47:00;13.18;;;8.48;;
5416;SDS011;2731;50.754;12.990;2023-05-21T09:49:29;9.13;;;7.57;;
5416;SDS011;2731;50.754;12.990;2023-05-21T09:51:57;9.02;;;7.65;;
5416;SDS011;2731;50.754;12.990;2023-05-21T09:54:24;11.40;;;8.45;;
5416;SDS011;2731;50.754;12.990;2023-05-21T09:56:52;9.63;;;8.27;;
5416;SDS011;2731;50.754;12.990;2023-05-21T09:59:18;9.50;;;7.25;;
5416;SDS011;2731;50.754;12.990;2023-05-21T10:01:48;9.30;;;7.68;;
5416;SDS011;2731;50.754;12.990;2023-05-21T10:04:17;8.88;;;7.38;;
5416;SDS011;2731;50.754;12.990;2023-05-21T10:06:45;8.52;;;7.45;;
5416;SDS011;2731;50.754;12.990;2023-05-21T10:09:15;8.00;;;7.20;;
5416;SDS011;2731;50.754;12.990;2023-05-21T10:11:44;9.55;;;7.30;;
5416;SDS011;2731;50.754;12.990;2023-05-21T10:14:17;13.15;;;6.80;;
5416;SDS011;2731;50.754;12.990;2023-05-21T10:16:46;9.63;;;7.15;;
5416;SDS011;2731;50.754;12.990;2023-05-21T10:19:14;8.52;;;7.63;;
5416;SDS011;2731;50.754;12.990;2023-05-21T10:21:43;8.43;;;6.97;;
5416;SDS011;2731;50.754;12.990;2023-05-21T10:24:11;9.68;;;7.60;;
5416;SDS011;2731;50.754;12.990;2023-05-21T10:26:40;8.75;;;7.60;;
5416;SDS011;2731;50.754;12.990;2023-05-21T10:29:08;8.38;;;7.47;;
5416;SDS011;2731;50.754;12.990;2023-05-21T10:31:37;8.70;;;7.28;;
5416;SDS011;2731;50.754;12.990;2023-05-21T10:34:05;7.63;;;6.40;;
5416;SDS011;2731;50.754;12.990;2023-05-21T10:36:33;10.57;;;8.10;;
5416;SDS011;2731;50.754;12.990;2023-05-21T10:39:03;7.45;;;6.55;;
5416;SDS011;2731;50.754;12.990;2023-05-21T10:41:41;7.65;;;6.70;;
5416;SDS011;2731;50.754;12.990;2023-05-21T10:44:20;9.88;;;6.95;;
5416;SDS011;2731;50.754;12.990;2023-05-21T10:49:40;7.15;;;6.45;;
5416;SDS011;2731;50.754;12.990;2023-05-21T10:55:01;7.07;;;6.35;;
5416;SDS011;2731;50.754;12.990;2023-05-21T11:00:09;7.82;;;6.18;;
5416;SDS011;2731;50.754;12.990;2023-05-21T11:02:38;10.35;;;6.90;;
5416;SDS011;2731;50.754;12.990;2023-05-21T11:05:09;7.82;;;7.03;;
5416;SDS011;2731;50.754;12.990;2023-05-21T11:07:55;10.65;;;8.15;;
5416;SDS011;2731;50.754;12.990;2023-05-21T11:10:38;8.45;;;7.53;;
5416;SDS011;2731;50.754;12.990;2023-05-21T11:13:15;8.35;;;7.03;;
5416;SDS011;2731;50.754;12.990;2023-05-21T11:23:50;8.65;;;6.60;;
5416;SDS011;2731;50.754;12.990;2023-05-21T11:28:43;7.43;;;6.43;;
5416;SDS011;2731;50.754;12.990;2023-05-21T11:31:26;7.93;;;6.25;;
5416;SDS011;2731;50.754;12.990;2023-05-21T11:36:48;9.02;;;6.80;;
5416;SDS011;2731;50.754;12.990;2023-05-21T11:39:26;10.35;;;7.15;;
5416;SDS011;2731;50.754;12.990;2023-05-21T11:41:55;9.85;;;7.50;;
5416;SDS011;2731;50.754;12.990;2023-05-21T11:44:46;8.73;;;6.57;;
5416;SDS011;2731;50.754;12.990;2023-05-21T11:47:16;7.85;;;6.53;;
5416;SDS011;2731;50.754;12.990;2023-05-21T11:49:44;8.77;;;6.82;;
5416;SDS011;2731;50.754;12.990;2023-05-21T11:52:13;10.90;;;7.30;;
5416;SDS011;2731;50.754;12.990;2023-05-21T11:54:44;9.13;;;6.00;;
5416;SDS011;2731;50.754;12.990;2023-05-21T11:59:47;9.10;;;7.03;;
5416;SDS011;2731;50.754;12.990;2023-05-21T12:02:17;10.38;;;6.40;;
5416;SDS011;2731;50.754;12.990;2023-05-21T12:04:45;7.45;;;6.43;;
5416;SDS011;2731;50.754;12.990;2023-05-21T12:07:15;7.07;;;6.05;;
5416;SDS011;2731;50.754;12.990;2023-05-21T12:09:45;7.13;;;6.43;;
5416;SDS011;2731;50.754;12.990;2023-05-21T12:12:13;7.13;;;6.33;;
5416;SDS011;2731;50.754;12.990;2023-05-21T12:14:45;7.18;;;6.13;;
5416;SDS011;2731;50.754;12.990;2023-05-21T12:17:17;6.43;;;5.82;;
5416;SDS011;2731;50.754;12.990;2023-05-21T12:19:44;6.68;;;5.68;;
5416;SDS011;2731;50.754;12.990;2023-05-21T12:22:12;7.43;;;6.45;;
5416;SDS011;2731;50.754;12.990;2023-05-21T12:24:44;7.28;;;6.45;;
5416;SDS011;2731;50.754;12.990;2023-05-21T12:27:13;6.65;;;6.05;;
5416;SDS011;2731;50.754;12.990;2023-05-21T12:29:46;8.35;;;6.45;;
5416;SDS011;2731;50.754;12.990;2023-05-21T12:32:14;14.98;;;6.32;;
5416;SDS011;2731;50.754;12.990;2023-05-21T12:37:11;6.90;;;5.75;;
5416;SDS011;2731;50.754;12.990;2023-05-21T12:39:42;9.90;;;6.30;;
5416;SDS011;2731;50.754;12.990;2023-05-21T12:42:09;10.10;;;6.05;;
5416;SDS011;2731;50.754;12.990;2023-05-21T12:44:46;8.18;;;5.55;;
5416;SDS011;2731;50.754;12.990;2023-05-21T12:47:15;7.75;;;5.63;;
5416;SDS011;2731;50.754;12.990;2023-05-21T12:49:42;8.98;;;5.97;;
5416;SDS011;2731;50.754;12.990;2023-05-21T12:52:17;6.45;;;5.85;;
5416;SDS011;2731;50.754;12.990;2023-05-21T12:54:55;9.48;;;5.85;;
5416;SDS011;2731;50.754;12.990;2023-05-21T12:57:43;6.38;;;5.50;;
5416;SDS011;2731;50.754;12.990;2023-05-21T13:00:10;8.88;;;5.57;;
5416;SDS011;2731;50.754;12.990;2023-05-21T13:02:42;6.82;;;5.20;;
5416;SDS011;2731;50.754;12.990;2023-05-21T13:05:20;6.28;;;5.50;;
5416;SDS011;2731;50.754;12.990;2023-05-21T13:07:46;8.65;;;6.43;;
5416;SDS011;2731;50.754;12.990;2023-05-21T13:10:15;7.68;;;6.07;;
5416;SDS011;2731;50.754;12.990;2023-05-21T13:12:52;6.18;;;5.57;;
5416;SDS011;2731;50.754;12.990;2023-05-21T13:15:20;6.15;;;4.85;;
5416;SDS011;2731;50.754;12.990;2023-05-21T13:17:46;6.70;;;5.47;;
5416;SDS011;2731;50.754;12.990;2023-05-21T13:20:13;7.93;;;5.53;;
5416;SDS011;2731;50.754;12.990;2023-05-21T13:22:43;7.22;;;5.97;;
5416;SDS011;2731;50.754;12.990;2023-05-21T13:25:14;9.00;;;5.93;;
5416;SDS011;2731;50.754;12.990;2023-05-21T13:27:43;7.28;;;6.13;;
5416;SDS011;2731;50.754;12.990;2023-05-21T13:30:12;6.80;;;5.63;;
5416;SDS011;2731;50.754;12.990;2023-05-21T13:32:40;8.57;;;6.50;;
5416;SDS011;2731;50.754;12.990;2023-05-21T13:35:08;8.13;;;5.72;;
5416;SDS011;2731;50.754;12.990;2023-05-21T13:37:37;7.88;;;5.90;;
5416;SDS011;2731;50.754;12.990;2023-05-21T13:40:07;8.52;;;5.85;;
5416;SDS011;2731;50.754;12.990;2023-05-21T13:42:36;8.77;;;6.25;;
5416;SDS011;2731;50.754;12.990;2023-05-21T13:45:05;9.65;;;6.78;;
5416;SDS011;2731;50.754;12.990;2023-05-21T13:47:34;8.00;;;6.63;;
5416;SDS011;2731;50.754;12.990;2023-05-21T13:50:04;8.52;;;6.68;;
5416;SDS011;2731;50.754;12.990;2023-05-21T13:52:30;6.65;;;6.03;;
5416;SDS011;2731;50.754;12.990;2023-05-21T13:54:56;10.30;;;6.25;;
5416;SDS011;2731;50.754;12.990;2023-05-21T13:57:24;8.05;;;6.40;;
5416;SDS011;2731;50.754;12.990;2023-05-21T13:59:54;8.40;;;6.43;;
5416;SDS011;2731;50.754;12.990;2023-05-21T14:02:22;6.93;;;6.22;;
5416;SDS011;2731;50.754;12.990;2023-05-21T14:04:49;8.90;;;6.53;;
5416;SDS011;2731;50.754;12.990;2023-05-21T14:07:17;6.30;;;5.68;;
5416;SDS011;2731;50.754;12.990;2023-05-21T14:09:49;7.03;;;6.10;;
5416;SDS011;2731;50.754;12.990;2023-05-21T14:12:18;7.25;;;6.55;;
5416;SDS011;2731;50.754;12.990;2023-05-21T14:14:54;7.20;;;6.22;;
5416;SDS011;2731;50.754;12.990;2023-05-21T14:17:26;6.53;;;5.78;;
5416;SDS011;2731;50.754;12.990;2023-05-21T14:19:55;6.72;;;5.70;;
5416;SDS011;2731;50.754;12.990;2023-05-21T14:22:21;7.60;;;5.80;;
5416;SDS011;2731;50.754;12.990;2023-05-21T14:24:48;7.55;;;6.00;;
5416;SDS011;2731;50.754;12.990;2023-05-21T14:27:16;7.97;;;6.30;;
5416;SDS011;2731;50.754;12.990;2023-05-21T14:29:45;6.28;;;5.68;;
5416;SDS011;2731;50.754;12.990;2023-05-21T14:32:12;6.85;;;5.60;;
5416;SDS011;2731;50.754;12.990;2023-05-21T14:34:44;6.03;;;5.47;;
5416;SDS011;2731;50.754;12.990;2023-05-21T14:37:12;6.72;;;6.10;;
5416;SDS011;2731;50.754;12.990;2023-05-21T14:39:41;7.50;;;5.18;;
5416;SDS011;2731;50.754;12.990;2023-05-21T14:42:09;11.10;;;6.50;;
5416;SDS011;2731;50.754;12.990;2023-05-21T14:44:36;9.30;;;6.60;;
5416;SDS011;2731;50.754;12.990;2023-05-21T14:47:04;7.38;;;6.00;;
5416;SDS011;2731;50.754;12.990;2023-05-21T14:49:32;8.75;;;6.47;;
5416;SDS011;2731;50.754;12.990;2023-05-21T14:51:59;12.68;;;7.28;;
5416;SDS011;2731;50.754;12.990;2023-05-21T14:54:27;8.07;;;6.43;;
5416;SDS011;2731;50.754;12.990;2023-05-21T14:56:53;8.07;;;5.70;;
5416;SDS011;2731;50.754;12.990;2023-05-21T14:59:21;8.50;;;5.65;;
5416;SDS011;2731;50.754;12.990;2023-05-21T15:01:48;6.13;;;5.47;;
5416;SDS011;2731;50.754;12.990;2023-05-21T15:04:16;8.00;;;5.90;;
5416;SDS011;2731;50.754;12.990;2023-05-21T15:06:44;6.65;;;5.57;;
5416;SDS011;2731;50.754;12.990;2023-05-21T15:09:11;8.95;;;5.95;;
5416;SDS011;2731;50.754;12.990;2023-05-21T15:11:37;6.40;;;5.07;;
5416;SDS011;2731;50.754;12.990;2023-05-21T15:14:04;8.52;;;5.43;;
5416;SDS011;2731;50.754;12.990;2023-05-21T15:16:32;13.50;;;5.88;;
5416;SDS011;2731;50.754;12.990;2023-05-21T15:18:59;12.30;;;6.20;;
5416;SDS011;2731;50.754;12.990;2023-05-21T15:21:25;6.75;;;5.88;;
5416;SDS011;2731;50.754;12.990;2023-05-21T15:23:54;12.10;;;6.40;;